sensor_id;sensor_type;location;lat;lon;timestamp;P1;durP1;ratioP1;P2;durP2;ratioP2
74469;SDS011;62918;55.706;37.816;2023-02-11T00:00:00;15.23;;;7.53;;
74469;SDS011;62918;55.706;37.816;2023-02-11T00:00:31;14.95;;;7.50;;
74469;SDS011;62918;55.706;37.816;2023-02-11T00:01:05;16.55;;;7.82;;
74469;SDS011;62918;55.706;37.816;2023-02-11T00:01:37;15.52;;;7.07;;
74469;SDS011;62918;55.706;37.816;2023-02-11T00:02:08;15.38;;;8.02;;
74469;SDS011;62918;55.706;37.816;2023-02-11T00:02:38;15.13;;;8.15;;
74469;SDS011;62918;55.706;37.816;2023-02-11T00:03:09;13.82;;;7.30;;
74469;SDS011;62918;55.706;37.816;2023-02-11T00:03:39;14.27;;;6.97;;
74469;SDS011;62918;55.706;37.816;2023-02-11T00:04:10;14.85;;;8.05;;
74469;SDS011;62918;55.706;37.816;2023-02-11T00:04:41;15.63;;;7.45;;
74469;SDS011;62918;55.706;37.816;2023-02-11T00:05:11;16.65;;;8.80;;
74469;SDS011;62918;55.706;37.816;2023-02-11T00:05:42;12.30;;;7.18;;
74469;SDS011;62918;55.706;37.816;2023-02-11T00:06:12;13.50;;;6.93;;
74469;SDS011;62918;55.706;37.816;2023-02-11T00:06:43;14.70;;;7.70;;
74469;SDS011;62918;55.706;37.816;2023-02-11T00:07:14;16.55;;;7.88;;
74469;SDS011;62918;55.706;37.816;2023-02-11T00:07:44;13.38;;;7.18;;
74469;SDS011;62918;55.706;37.816;2023-02-11T00:08:15;16.60;;;7.43;;
74469;SDS011;62918;55.706;37.816;2023-02-11T00:08:46;16.73;;;7.63;;
74469;SDS011;62918;55.706;37.816;2023-02-11T00:09:16;18.48;;;7.85;;
74469;SDS011;62918;55.706;37.816;2023-02-11T00:09:47;13.85;;;7.20;;
74469;SDS011;62918;55.706;37.816;2023-02-11T00:10:17;15.43;;;8.07;;
74469;SDS011;62918;55.706;37.816;2023-02-11T00:10:52;16.25;;;8.50;;
74469;SDS011;62918;55.706;37.816;2023-02-11T00:11:24;14.55;;;7.43;;
74469;SDS011;62918;55.706;37.816;2023-02-11T00:11:59;16.52;;;7.78;;
74469;SDS011;62918;55.706;37.816;2023-02-11T00:12:29;14.70;;;7.05;;
74469;SDS011;62918;55.706;37.816;2023-02-11T00:13:00;14.32;;;7.18;;
74469;SDS011;62918;55.706;37.816;2023-02-11T00:13:31;15.60;;;8.15;;
74469;SDS011;62918;55.706;37.816;2023-02-11T00:14:02;14.02;;;7.43;;
74469;SDS011;62918;55.706;37.816;2023-02-11T00:14:35;15.70;;;8.18;;
74469;SDS011;62918;55.706;37.816;2023-02-11T00:15:06;16.83;;;7.97;;
74469;SDS011;62918;55.706;37.816;2023-02-11T00:15:37;15.90;;;7.68;;
74469;SDS011;62918;55.706;37.816;2023-02-11T00:16:09;14.63;;;7.10;;
74469;SDS011;62918;55.706;37.816;2023-02-11T00:16:41;15.18;;;8.07;;
74469;SDS011;62918;55.706;37.816;2023-02-11T00:17:11;14.23;;;8.05;;
74469;SDS011;62918;55.706;37.816;2023-02-11T00:17:42;14.65;;;7.55;;
74469;SDS011;62918;55.706;37.816;2023-02-11T00:18:13;13.52;;;6.63;;
74469;SDS011;62918;55.706;37.816;2023-02-11T00:18:43;14.23;;;7.82;;
74469;SDS011;62918;55.706;37.816;2023-02-11T00:19:14;15.25;;;7.75;;
74469;SDS011;62918;55.706;37.816;2023-02-11T00:19:48;15.38;;;7.18;;
74469;SDS011;62918;55.706;37.816;2023-02-11T00:20:19;14.40;;;7.93;;
74469;SDS011;62918;55.706;37.816;2023-02-11T00:20:50;13.25;;;6.13;;
74469;SDS011;62918;55.706;37.816;2023-02-11T00:21:22;13.43;;;6.95;;
74469;SDS011;62918;55.706;37.816;2023-02-11T00:21:53;14.13;;;7.10;;
74469;SDS011;62918;55.706;37.816;2023-02-11T00:22:24;14.73;;;7.35;;
74469;SDS011;62918;55.706;37.816;2023-02-11T00:22:55;15.40;;;7.80;;
74469;SDS011;62918;55.706;37.816;2023-02-11T00:23:25;16.75;;;6.88;;
74469;SDS011;62918;55.706;37.816;2023-02-11T00:23:56;15.75;;;7.65;;
74469;SDS011;62918;55.706;37.816;2023-02-11T00:24:28;14.15;;;7.68;;
74469;SDS011;62918;55.706;37.816;2023-02-11T00:25:01;15.38;;;7.55;;
74469;SDS011;62918;55.706;37.816;2023-02-11T00:25:37;13.70;;;6.75;;
74469;SDS011;62918;55.706;37.816;2023-02-11T00:26:16;13.38;;;7.18;;
74469;SDS011;62918;55.706;37.816;2023-02-11T00:26:48;14.43;;;6.72;;
74469;SDS011;62918;55.706;37.816;2023-02-11T00:27:19;16.30;;;7.80;;
74469;SDS011;62918;55.706;37.816;2023-02-11T00:27:49;14.45;;;7.22;;
74469;SDS011;62918;55.706;37.816;2023-02-11T00:28:20;16.13;;;6.85;;
74469;SDS011;62918;55.706;37.816;2023-02-11T00:28:51;16.67;;;7.10;;
74469;SDS011;62918;55.706;37.816;2023-02-11T00:29:22;12.35;;;6.45;;
74469;SDS011;62918;55.706;37.816;2023-02-11T00:29:53;12.30;;;6.70;;
74469;SDS011;62918;55.706;37.816;2023-02-11T00:30:25;14.13;;;6.47;;
74469;SDS011;62918;55.706;37.816;2023-02-11T00:30:56;14.93;;;7.72;;
74469;SDS011;62918;55.706;37.816;2023-02-11T00:31:27;16.55;;;7.68;;
74469;SDS011;62918;55.706;37.816;2023-02-11T00:31:58;14.90;;;7.20;;
74469;SDS011;62918;55.706;37.816;2023-02-11T00:32:34;12.98;;;7.00;;
74469;SDS011;62918;55.706;37.816;2023-02-11T00:33:04;17.13;;;6.88;;
74469;SDS011;62918;55.706;37.816;2023-02-11T00:33:35;13.23;;;6.97;;
74469;SDS011;62918;55.706;37.816;2023-02-11T00:34:06;14.20;;;7.03;;
74469;SDS011;62918;55.706;37.816;2023-02-11T00:34:36;15.32;;;7.57;;
74469;SDS011;62918;55.706;37.816;2023-02-11T00:35:07;16.55;;;7.32;;
74469;SDS011;62918;55.706;37.816;2023-02-11T00:35:37;18.40;;;8.00;;
74469;SDS011;62918;55.706;37.816;2023-02-11T00:36:12;14.77;;;7.55;;
74469;SDS011;62918;55.706;37.816;2023-02-11T00:36:45;16.02;;;7.40;;
74469;SDS011;62918;55.706;37.816;2023-02-11T00:37:15;14.15;;;6.97;;
74469;SDS011;62918;55.706;37.816;2023-02-11T00:37:46;13.45;;;7.85;;
74469;SDS011;62918;55.706;37.816;2023-02-11T00:38:16;13.80;;;7.18;;
74469;SDS011;62918;55.706;37.816;2023-02-11T00:38:47;13.18;;;6.25;;
74469;SDS011;62918;55.706;37.816;2023-02-11T00:39:18;13.20;;;6.95;;
74469;SDS011;62918;55.706;37.816;2023-02-11T00:39:49;13.07;;;6.45;;
74469;SDS011;62918;55.706;37.816;2023-02-11T00:40:20;13.30;;;6.68;;
74469;SDS011;62918;55.706;37.816;2023-02-11T00:40:50;15.25;;;7.20;;
74469;SDS011;62918;55.706;37.816;2023-02-11T00:41:21;16.50;;;6.72;;
74469;SDS011;62918;55.706;37.816;2023-02-11T00:41:52;15.00;;;7.60;;
74469;SDS011;62918;55.706;37.816;2023-02-11T00:42:23;14.00;;;6.88;;
74469;SDS011;62918;55.706;37.816;2023-02-11T00:42:53;15.63;;;6.97;;
74469;SDS011;62918;55.706;37.816;2023-02-11T00:43:24;14.43;;;7.07;;
74469;SDS011;62918;55.706;37.816;2023-02-11T00:43:54;12.15;;;6.35;;
74469;SDS011;62918;55.706;37.816;2023-02-11T00:44:25;14.10;;;6.82;;
74469;SDS011;62918;55.706;37.816;2023-02-11T00:44:55;12.98;;;6.80;;
74469;SDS011;62918;55.706;37.816;2023-02-11T00:45:26;13.43;;;6.75;;
74469;SDS011;62918;55.706;37.816;2023-02-11T00:45:58;13.32;;;6.68;;
74469;SDS011;62918;55.706;37.816;2023-02-11T00:46:28;15.30;;;7.55;;
74469;SDS011;62918;55.706;37.816;2023-02-11T00:46:59;13.25;;;6.93;;
74469;SDS011;62918;55.706;37.816;2023-02-11T00:47:29;12.93;;;6.97;;
74469;SDS011;62918;55.706;37.816;2023-02-11T00:48:00;15.10;;;6.95;;
74469;SDS011;62918;55.706;37.816;2023-02-11T00:48:31;14.93;;;7.25;;
74469;SDS011;62918;55.706;37.816;2023-02-11T00:49:02;14.77;;;8.57;;
74469;SDS011;62918;55.706;37.816;2023-02-11T00:49:32;11.90;;;6.75;;
74469;SDS011;62918;55.706;37.816;2023-02-11T00:50:03;17.90;;;8.10;;
74469;SDS011;62918;55.706;37.816;2023-02-11T00:50:35;15.05;;;7.40;;
74469;SDS011;62918;55.706;37.816;2023-02-11T00:51:06;13.45;;;7.03;;
74469;SDS011;62918;55.706;37.816;2023-02-11T00:51:37;14.82;;;6.78;;
74469;SDS011;62918;55.706;37.816;2023-02-11T00:52:07;13.90;;;6.88;;
74469;SDS011;62918;55.706;37.816;2023-02-11T00:52:38;12.80;;;6.60;;
74469;SDS011;62918;55.706;37.816;2023-02-11T00:53:08;12.27;;;6.22;;
74469;SDS011;62918;55.706;37.816;2023-02-11T00:53:39;13.80;;;6.60;;
74469;SDS011;62918;55.706;37.816;2023-02-11T00:54:10;14.57;;;6.82;;
74469;SDS011;62918;55.706;37.816;2023-02-11T00:54:41;14.50;;;6.72;;
74469;SDS011;62918;55.706;37.816;2023-02-11T00:55:11;11.02;;;7.40;;
74469;SDS011;62918;55.706;37.816;2023-02-11T00:55:42;14.27;;;6.30;;
74469;SDS011;62918;55.706;37.816;2023-02-11T00:56:13;12.93;;;6.35;;
74469;SDS011;62918;55.706;37.816;2023-02-11T00:56:43;14.50;;;6.85;;
74469;SDS011;62918;55.706;37.816;2023-02-11T00:57:14;14.05;;;6.45;;
74469;SDS011;62918;55.706;37.816;2023-02-11T00:57:44;16.88;;;6.60;;
74469;SDS011;62918;55.706;37.816;2023-02-11T00:58:15;12.32;;;6.40;;
74469;SDS011;62918;55.706;37.816;2023-02-11T00:58:45;12.07;;;6.30;;
74469;SDS011;62918;55.706;37.816;2023-02-11T00:59:17;13.77;;;6.28;;
74469;SDS011;62918;55.706;37.816;2023-02-11T00:59:47;18.30;;;7.18;;
74469;SDS011;62918;55.706;37.816;2023-02-11T01:00:19;16.55;;;7.03;;
74469;SDS011;62918;55.706;37.816;2023-02-11T01:00:52;16.17;;;6.38;;
74469;SDS011;62918;55.706;37.816;2023-02-11T01:01:23;13.80;;;6.88;;
74469;SDS011;62918;55.706;37.816;2023-02-11T01:01:53;14.27;;;6.63;;
74469;SDS011;62918;55.706;37.816;2023-02-11T01:02:24;12.82;;;6.88;;
74469;SDS011;62918;55.706;37.816;2023-02-11T01:02:55;14.85;;;7.20;;
74469;SDS011;62918;55.706;37.816;2023-02-11T01:03:25;15.00;;;6.85;;
74469;SDS011;62918;55.706;37.816;2023-02-11T01:03:56;12.32;;;6.38;;
74469;SDS011;62918;55.706;37.816;2023-02-11T01:04:27;16.50;;;7.15;;
74469;SDS011;62918;55.706;37.816;2023-02-11T01:04:58;14.93;;;6.72;;
74469;SDS011;62918;55.706;37.816;2023-02-11T01:05:29;14.15;;;6.90;;
74469;SDS011;62918;55.706;37.816;2023-02-11T01:06:00;16.05;;;7.20;;
74469;SDS011;62918;55.706;37.816;2023-02-11T01:06:30;12.65;;;6.70;;
74469;SDS011;62918;55.706;37.816;2023-02-11T01:07:01;15.25;;;6.63;;
74469;SDS011;62918;55.706;37.816;2023-02-11T01:07:31;12.10;;;6.32;;
74469;SDS011;62918;55.706;37.816;2023-02-11T01:08:02;13.38;;;7.45;;
74469;SDS011;62918;55.706;37.816;2023-02-11T01:08:33;16.10;;;6.80;;
74469;SDS011;62918;55.706;37.816;2023-02-11T01:09:04;14.32;;;6.72;;
74469;SDS011;62918;55.706;37.816;2023-02-11T01:09:36;13.98;;;6.57;;
74469;SDS011;62918;55.706;37.816;2023-02-11T01:10:07;13.50;;;6.63;;
74469;SDS011;62918;55.706;37.816;2023-02-11T01:10:38;12.35;;;5.80;;
74469;SDS011;62918;55.706;37.816;2023-02-11T01:11:13;14.95;;;6.43;;
74469;SDS011;62918;55.706;37.816;2023-02-11T01:11:45;12.27;;;6.70;;
74469;SDS011;62918;55.706;37.816;2023-02-11T01:12:16;12.63;;;6.65;;
74469;SDS011;62918;55.706;37.816;2023-02-11T01:12:47;16.33;;;6.43;;
74469;SDS011;62918;55.706;37.816;2023-02-11T01:13:17;13.32;;;6.03;;
74469;SDS011;62918;55.706;37.816;2023-02-11T01:13:48;13.25;;;6.32;;
74469;SDS011;62918;55.706;37.816;2023-02-11T01:14:19;11.88;;;6.53;;
74469;SDS011;62918;55.706;37.816;2023-02-11T01:14:50;12.05;;;6.40;;
74469;SDS011;62918;55.706;37.816;2023-02-11T01:15:21;14.00;;;6.40;;
74469;SDS011;62918;55.706;37.816;2023-02-11T01:15:52;13.88;;;6.30;;
74469;SDS011;62918;55.706;37.816;2023-02-11T01:16:22;16.33;;;6.60;;
74469;SDS011;62918;55.706;37.816;2023-02-11T01:16:53;15.10;;;6.78;;
74469;SDS011;62918;55.706;37.816;2023-02-11T01:17:24;12.88;;;6.95;;
74469;SDS011;62918;55.706;37.816;2023-02-11T01:17:54;17.60;;;6.90;;
74469;SDS011;62918;55.706;37.816;2023-02-11T01:18:25;14.02;;;6.55;;
74469;SDS011;62918;55.706;37.816;2023-02-11T01:18:56;14.50;;;6.60;;
74469;SDS011;62918;55.706;37.816;2023-02-11T01:19:27;11.85;;;6.00;;
74469;SDS011;62918;55.706;37.816;2023-02-11T01:19:58;14.63;;;6.75;;
74469;SDS011;62918;55.706;37.816;2023-02-11T01:20:31;16.92;;;6.63;;
74469;SDS011;62918;55.706;37.816;2023-02-11T01:21:01;11.88;;;5.43;;
74469;SDS011;62918;55.706;37.816;2023-02-11T01:21:33;13.75;;;6.07;;
74469;SDS011;62918;55.706;37.816;2023-02-11T01:22:03;15.35;;;6.40;;
74469;SDS011;62918;55.706;37.816;2023-02-11T01:22:34;12.90;;;5.95;;
74469;SDS011;62918;55.706;37.816;2023-02-11T01:23:08;14.65;;;6.32;;
74469;SDS011;62918;55.706;37.816;2023-02-11T01:23:39;12.48;;;6.88;;
74469;SDS011;62918;55.706;37.816;2023-02-11T01:24:09;14.27;;;6.30;;
74469;SDS011;62918;55.706;37.816;2023-02-11T01:24:40;13.98;;;6.65;;
74469;SDS011;62918;55.706;37.816;2023-02-11T01:25:10;14.07;;;6.00;;
74469;SDS011;62918;55.706;37.816;2023-02-11T01:25:43;12.57;;;6.45;;
74469;SDS011;62918;55.706;37.816;2023-02-11T01:26:14;11.40;;;5.70;;
74469;SDS011;62918;55.706;37.816;2023-02-11T01:26:44;13.32;;;5.90;;
74469;SDS011;62918;55.706;37.816;2023-02-11T01:27:15;13.75;;;6.18;;
74469;SDS011;62918;55.706;37.816;2023-02-11T01:27:46;12.85;;;6.05;;
74469;SDS011;62918;55.706;37.816;2023-02-11T01:28:17;15.02;;;5.95;;
74469;SDS011;62918;55.706;37.816;2023-02-11T01:28:49;11.48;;;5.47;;
74469;SDS011;62918;55.706;37.816;2023-02-11T01:29:20;12.93;;;6.22;;
74469;SDS011;62918;55.706;37.816;2023-02-11T01:29:50;13.68;;;6.40;;
74469;SDS011;62918;55.706;37.816;2023-02-11T01:30:21;13.50;;;6.07;;
74469;SDS011;62918;55.706;37.816;2023-02-11T01:30:52;12.68;;;5.90;;
74469;SDS011;62918;55.706;37.816;2023-02-11T01:31:23;12.13;;;6.13;;
74469;SDS011;62918;55.706;37.816;2023-02-11T01:31:53;12.43;;;6.30;;
74469;SDS011;62918;55.706;37.816;2023-02-11T01:32:24;12.60;;;6.07;;
74469;SDS011;62918;55.706;37.816;2023-02-11T01:32:54;13.57;;;6.15;;
74469;SDS011;62918;55.706;37.816;2023-02-11T01:33:25;14.05;;;6.22;;
74469;SDS011;62918;55.706;37.816;2023-02-11T01:33:55;10.75;;;5.75;;
74469;SDS011;62918;55.706;37.816;2023-02-11T01:34:26;11.88;;;5.82;;
74469;SDS011;62918;55.706;37.816;2023-02-11T01:34:57;11.43;;;5.25;;
74469;SDS011;62918;55.706;37.816;2023-02-11T01:35:27;15.32;;;5.78;;
74469;SDS011;62918;55.706;37.816;2023-02-11T01:36:01;12.25;;;5.68;;
74469;SDS011;62918;55.706;37.816;2023-02-11T01:36:33;15.63;;;6.22;;
74469;SDS011;62918;55.706;37.816;2023-02-11T01:37:04;13.57;;;6.00;;
74469;SDS011;62918;55.706;37.816;2023-02-11T01:37:35;14.75;;;6.45;;
74469;SDS011;62918;55.706;37.816;2023-02-11T01:38:06;13.30;;;6.32;;
74469;SDS011;62918;55.706;37.816;2023-02-11T01:38:37;15.98;;;6.18;;
74469;SDS011;62918;55.706;37.816;2023-02-11T01:39:09;11.88;;;5.82;;
74469;SDS011;62918;55.706;37.816;2023-02-11T01:39:40;13.95;;;5.97;;
74469;SDS011;62918;55.706;37.816;2023-02-11T01:40:12;11.27;;;5.95;;
74469;SDS011;62918;55.706;37.816;2023-02-11T01:40:48;14.10;;;5.35;;
74469;SDS011;62918;55.706;37.816;2023-02-11T01:41:23;12.18;;;5.40;;
74469;SDS011;62918;55.706;37.816;2023-02-11T01:41:53;13.25;;;5.40;;
74469;SDS011;62918;55.706;37.816;2023-02-11T01:42:24;11.73;;;6.00;;
74469;SDS011;62918;55.706;37.816;2023-02-11T01:42:55;12.73;;;6.22;;
74469;SDS011;62918;55.706;37.816;2023-02-11T01:43:26;12.13;;;6.25;;
74469;SDS011;62918;55.706;37.816;2023-02-11T01:44:55;12.88;;;5.28;;
74469;SDS011;62918;55.706;37.816;2023-02-11T01:47:05;12.27;;;5.68;;
74469;SDS011;62918;55.706;37.816;2023-02-11T01:47:37;12.95;;;5.88;;
74469;SDS011;62918;55.706;37.816;2023-02-11T01:48:07;11.82;;;5.30;;
74469;SDS011;62918;55.706;37.816;2023-02-11T01:48:43;13.25;;;5.90;;
74469;SDS011;62918;55.706;37.816;2023-02-11T01:49:38;12.93;;;6.05;;
74469;SDS011;62918;55.706;37.816;2023-02-11T01:50:15;13.07;;;5.32;;
74469;SDS011;62918;55.706;37.816;2023-02-11T01:50:46;12.18;;;4.88;;
74469;SDS011;62918;55.706;37.816;2023-02-11T01:51:21;11.23;;;5.13;;
74469;SDS011;62918;55.706;37.816;2023-02-11T01:52:34;13.63;;;5.82;;
74469;SDS011;62918;55.706;37.816;2023-02-11T01:53:08;11.90;;;5.18;;
74469;SDS011;62918;55.706;37.816;2023-02-11T01:53:58;12.48;;;5.20;;
74469;SDS011;62918;55.706;37.816;2023-02-11T01:54:53;13.63;;;5.20;;
74469;SDS011;62918;55.706;37.816;2023-02-11T01:55:45;14.50;;;5.32;;
74469;SDS011;62918;55.706;37.816;2023-02-11T01:56:36;11.98;;;5.20;;
74469;SDS011;62918;55.706;37.816;2023-02-11T01:57:30;11.90;;;4.72;;
74469;SDS011;62918;55.706;37.816;2023-02-11T01:58:03;13.25;;;5.18;;
74469;SDS011;62918;55.706;37.816;2023-02-11T01:58:34;12.40;;;5.47;;
74469;SDS011;62918;55.706;37.816;2023-02-11T01:59:13;14.38;;;5.32;;
74469;SDS011;62918;55.706;37.816;2023-02-11T02:00:33;12.35;;;5.85;;
74469;SDS011;62918;55.706;37.816;2023-02-11T02:01:05;13.13;;;5.43;;
74469;SDS011;62918;55.706;37.816;2023-02-11T02:01:40;12.35;;;5.63;;
74469;SDS011;62918;55.706;37.816;2023-02-11T02:02:18;12.10;;;5.20;;
74469;SDS011;62918;55.706;37.816;2023-02-11T02:03:32;13.05;;;5.15;;
74469;SDS011;62918;55.706;37.816;2023-02-11T02:04:06;9.57;;;5.18;;
74469;SDS011;62918;55.706;37.816;2023-02-11T02:04:44;12.05;;;5.22;;
74469;SDS011;62918;55.706;37.816;2023-02-11T02:06:17;9.98;;;4.93;;
74469;SDS011;62918;55.706;37.816;2023-02-11T02:06:55;11.85;;;5.35;;
74469;SDS011;62918;55.706;37.816;2023-02-11T02:07:35;11.85;;;5.30;;
74469;SDS011;62918;55.706;37.816;2023-02-11T02:09:08;12.90;;;4.88;;
74469;SDS011;62918;55.706;37.816;2023-02-11T02:10:08;11.77;;;5.03;;
74469;SDS011;62918;55.706;37.816;2023-02-11T02:10:45;13.15;;;5.25;;
74469;SDS011;62918;55.706;37.816;2023-02-11T02:11:19;11.35;;;5.55;;
74469;SDS011;62918;55.706;37.816;2023-02-11T02:11:49;11.07;;;4.47;;
74469;SDS011;62918;55.706;37.816;2023-02-11T02:12:20;13.90;;;4.85;;
74469;SDS011;62918;55.706;37.816;2023-02-11T02:12:52;12.00;;;5.57;;
74469;SDS011;62918;55.706;37.816;2023-02-11T02:13:23;10.57;;;4.82;;
74469;SDS011;62918;55.706;37.816;2023-02-11T02:13:54;12.57;;;5.28;;
74469;SDS011;62918;55.706;37.816;2023-02-11T02:14:25;10.77;;;5.07;;
74469;SDS011;62918;55.706;37.816;2023-02-11T02:15:10;12.60;;;4.70;;
74469;SDS011;62918;55.706;37.816;2023-02-11T02:16:34;13.65;;;5.18;;
74469;SDS011;62918;55.706;37.816;2023-02-11T02:16:43;10.23;;;4.40;;
74469;SDS011;62918;55.706;37.816;2023-02-11T02:17:21;11.45;;;4.38;;
74469;SDS011;62918;55.706;37.816;2023-02-11T02:18:02;11.63;;;4.50;;
74469;SDS011;62918;55.706;37.816;2023-02-11T02:20:08;9.98;;;4.47;;
74469;SDS011;62918;55.706;37.816;2023-02-11T02:26:18;9.32;;;4.05;;
74469;SDS011;62918;55.706;37.816;2023-02-11T02:27:22;9.65;;;3.80;;
74469;SDS011;62918;55.706;37.816;2023-02-11T02:28:41;9.48;;;3.72;;
74469;SDS011;62918;55.706;37.816;2023-02-11T02:29:42;10.02;;;4.00;;
74469;SDS011;62918;55.706;37.816;2023-02-11T02:33:36;9.45;;;3.97;;
74469;SDS011;62918;55.706;37.816;2023-02-11T02:34:22;10.00;;;3.90;;
74469;SDS011;62918;55.706;37.816;2023-02-11T02:37:09;7.53;;;3.17;;
74469;SDS011;62918;55.706;37.816;2023-02-11T02:39:37;8.48;;;3.17;;
74469;SDS011;62918;55.706;37.816;2023-02-11T02:40:11;9.23;;;3.58;;
74469;SDS011;62918;55.706;37.816;2023-02-11T02:40:58;10.60;;;3.47;;
74469;SDS011;62918;55.706;37.816;2023-02-11T02:41:32;10.82;;;3.88;;
74469;SDS011;62918;55.706;37.816;2023-02-11T02:42:05;7.18;;;3.65;;
74469;SDS011;62918;55.706;37.816;2023-02-11T02:42:36;8.65;;;3.72;;
74469;SDS011;62918;55.706;37.816;2023-02-11T02:43:09;10.07;;;3.60;;
74469;SDS011;62918;55.706;37.816;2023-02-11T02:43:43;7.55;;;3.70;;
74469;SDS011;62918;55.706;37.816;2023-02-11T02:44:15;9.10;;;3.55;;
74469;SDS011;62918;55.706;37.816;2023-02-11T02:44:50;7.57;;;3.30;;
74469;SDS011;62918;55.706;37.816;2023-02-11T02:45:22;7.20;;;3.25;;
74469;SDS011;62918;55.706;37.816;2023-02-11T02:46:08;8.75;;;3.60;;
74469;SDS011;62918;55.706;37.816;2023-02-11T02:46:45;7.20;;;3.38;;
74469;SDS011;62918;55.706;37.816;2023-02-11T02:47:16;10.65;;;3.83;;
74469;SDS011;62918;55.706;37.816;2023-02-11T02:47:47;9.85;;;3.60;;
74469;SDS011;62918;55.706;37.816;2023-02-11T02:48:24;9.75;;;3.47;;
74469;SDS011;62918;55.706;37.816;2023-02-11T02:48:59;7.68;;;3.47;;
74469;SDS011;62918;55.706;37.816;2023-02-11T02:49:30;9.07;;;3.28;;
74469;SDS011;62918;55.706;37.816;2023-02-11T02:50:01;9.73;;;3.53;;
74469;SDS011;62918;55.706;37.816;2023-02-11T02:50:34;11.15;;;4.30;;
74469;SDS011;62918;55.706;37.816;2023-02-11T02:52:06;8.25;;;2.90;;
74469;SDS011;62918;55.706;37.816;2023-02-11T02:53:57;10.40;;;2.85;;
74469;SDS011;62918;55.706;37.816;2023-02-11T02:57:42;8.27;;;2.85;;
74469;SDS011;62918;55.706;37.816;2023-02-11T02:58:51;10.30;;;2.88;;
74469;SDS011;62918;55.706;37.816;2023-02-11T03:05:16;9.30;;;3.10;;
74469;SDS011;62918;55.706;37.816;2023-02-11T03:06:26;8.68;;;3.10;;
74469;SDS011;62918;55.706;37.816;2023-02-11T03:07:47;10.55;;;3.28;;
74469;SDS011;62918;55.706;37.816;2023-02-11T03:08:38;8.07;;;2.83;;
74469;SDS011;62918;55.706;37.816;2023-02-11T03:09:19;7.47;;;2.85;;
74469;SDS011;62918;55.706;37.816;2023-02-11T03:09:59;8.73;;;3.08;;
74469;SDS011;62918;55.706;37.816;2023-02-11T03:10:33;7.93;;;3.30;;
74469;SDS011;62918;55.706;37.816;2023-02-11T03:11:08;10.18;;;3.38;;
74469;SDS011;62918;55.706;37.816;2023-02-11T03:11:40;6.47;;;2.88;;
74469;SDS011;62918;55.706;37.816;2023-02-11T03:12:10;8.02;;;2.90;;
74469;SDS011;62918;55.706;37.816;2023-02-11T03:12:43;7.78;;;3.55;;
74469;SDS011;62918;55.706;37.816;2023-02-11T03:13:16;9.18;;;3.13;;
74469;SDS011;62918;55.706;37.816;2023-02-11T03:13:50;11.38;;;3.65;;
74469;SDS011;62918;55.706;37.816;2023-02-11T03:14:24;9.82;;;3.92;;
74469;SDS011;62918;55.706;37.816;2023-02-11T03:14:57;7.70;;;3.30;;
74469;SDS011;62918;55.706;37.816;2023-02-11T03:16:06;7.60;;;2.90;;
74469;SDS011;62918;55.706;37.816;2023-02-11T03:16:41;9.50;;;3.22;;
74469;SDS011;62918;55.706;37.816;2023-02-11T03:17:14;8.15;;;3.05;;
74469;SDS011;62918;55.706;37.816;2023-02-11T03:17:46;9.45;;;3.22;;
74469;SDS011;62918;55.706;37.816;2023-02-11T03:18:20;8.05;;;3.03;;
74469;SDS011;62918;55.706;37.816;2023-02-11T03:18:56;9.48;;;3.38;;
74469;SDS011;62918;55.706;37.816;2023-02-11T03:19:33;8.45;;;3.38;;
74469;SDS011;62918;55.706;37.816;2023-02-11T03:20:09;10.23;;;3.35;;
74469;SDS011;62918;55.706;37.816;2023-02-11T03:20:43;10.55;;;3.42;;
74469;SDS011;62918;55.706;37.816;2023-02-11T03:21:17;6.57;;;2.70;;
74469;SDS011;62918;55.706;37.816;2023-02-11T03:21:49;7.30;;;3.45;;
74469;SDS011;62918;55.706;37.816;2023-02-11T03:22:26;7.95;;;3.20;;
74469;SDS011;62918;55.706;37.816;2023-02-11T03:23:55;8.02;;;3.13;;
74469;SDS011;62918;55.706;37.816;2023-02-11T03:24:33;7.88;;;3.38;;
74469;SDS011;62918;55.706;37.816;2023-02-11T03:25:07;7.97;;;3.25;;
74469;SDS011;62918;55.706;37.816;2023-02-11T03:25:43;8.63;;;2.92;;
74469;SDS011;62918;55.706;37.816;2023-02-11T03:26:27;7.82;;;2.65;;
74469;SDS011;62918;55.706;37.816;2023-02-11T03:27:48;7.90;;;3.03;;
74469;SDS011;62918;55.706;37.816;2023-02-11T03:30:17;9.48;;;2.97;;
74469;SDS011;62918;55.706;37.816;2023-02-11T03:30:58;7.10;;;2.75;;
74469;SDS011;62918;55.706;37.816;2023-02-11T03:32:54;7.85;;;2.40;;
74469;SDS011;62918;55.706;37.816;2023-02-11T03:33:36;8.45;;;2.97;;
74469;SDS011;62918;55.706;37.816;2023-02-11T03:34:15;8.60;;;3.40;;
74469;SDS011;62918;55.706;37.816;2023-02-11T03:35:35;8.35;;;3.15;;
74469;SDS011;62918;55.706;37.816;2023-02-11T03:36:17;8.50;;;2.58;;
74469;SDS011;62918;55.706;37.816;2023-02-11T03:36:55;9.75;;;2.78;;
74469;SDS011;62918;55.706;37.816;2023-02-11T03:37:37;8.73;;;2.72;;
74469;SDS011;62918;55.706;37.816;2023-02-11T03:38:30;9.00;;;2.95;;
74469;SDS011;62918;55.706;37.816;2023-02-11T03:39:05;8.52;;;3.13;;
74469;SDS011;62918;55.706;37.816;2023-02-11T03:39:39;9.18;;;2.55;;
74469;SDS011;62918;55.706;37.816;2023-02-11T03:40:25;8.52;;;3.42;;
74469;SDS011;62918;55.706;37.816;2023-02-11T03:40:58;7.72;;;3.05;;
74469;SDS011;62918;55.706;37.816;2023-02-11T03:41:32;8.65;;;2.80;;
74469;SDS011;62918;55.706;37.816;2023-02-11T03:42:05;7.45;;;2.78;;
74469;SDS011;62918;55.706;37.816;2023-02-11T03:42:48;7.28;;;2.80;;
74469;SDS011;62918;55.706;37.816;2023-02-11T03:43:31;7.40;;;2.38;;
74469;SDS011;62918;55.706;37.816;2023-02-11T03:44:04;7.53;;;2.70;;
74469;SDS011;62918;55.706;37.816;2023-02-11T03:44:38;8.77;;;2.97;;
74469;SDS011;62918;55.706;37.816;2023-02-11T03:45:14;9.23;;;2.40;;
74469;SDS011;62918;55.706;37.816;2023-02-11T03:45:48;7.85;;;2.42;;
74469;SDS011;62918;55.706;37.816;2023-02-11T03:46:27;8.05;;;2.90;;
74469;SDS011;62918;55.706;37.816;2023-02-11T03:47:03;11.75;;;2.85;;
74469;SDS011;62918;55.706;37.816;2023-02-11T03:47:39;8.02;;;2.72;;
74469;SDS011;62918;55.706;37.816;2023-02-11T03:48:51;6.13;;;2.42;;
74469;SDS011;62918;55.706;37.816;2023-02-11T03:49:19;7.63;;;2.67;;
74469;SDS011;62918;55.706;37.816;2023-02-11T03:49:52;9.18;;;2.60;;
74469;SDS011;62918;55.706;37.816;2023-02-11T03:50:26;8.30;;;3.53;;
74469;SDS011;62918;55.706;37.816;2023-02-11T03:51:01;11.30;;;3.42;;
74469;SDS011;62918;55.706;37.816;2023-02-11T03:51:35;6.88;;;2.53;;
74469;SDS011;62918;55.706;37.816;2023-02-11T03:52:07;9.95;;;3.13;;
74469;SDS011;62918;55.706;37.816;2023-02-11T03:52:40;8.00;;;2.83;;
74469;SDS011;62918;55.706;37.816;2023-02-11T03:53:11;8.80;;;2.75;;
74469;SDS011;62918;55.706;37.816;2023-02-11T03:54:17;8.93;;;3.10;;
74469;SDS011;62918;55.706;37.816;2023-02-11T03:54:54;8.75;;;2.58;;
74469;SDS011;62918;55.706;37.816;2023-02-11T03:55:27;6.40;;;2.50;;
74469;SDS011;62918;55.706;37.816;2023-02-11T03:56:00;10.13;;;2.97;;
74469;SDS011;62918;55.706;37.816;2023-02-11T03:56:36;8.75;;;2.92;;
74469;SDS011;62918;55.706;37.816;2023-02-11T03:57:10;7.53;;;2.72;;
74469;SDS011;62918;55.706;37.816;2023-02-11T03:57:41;8.63;;;2.67;;
74469;SDS011;62918;55.706;37.816;2023-02-11T03:58:12;6.85;;;2.40;;
74469;SDS011;62918;55.706;37.816;2023-02-11T03:58:43;7.85;;;2.88;;
74469;SDS011;62918;55.706;37.816;2023-02-11T03:59:14;6.50;;;2.67;;